sensor_id;sensor_type;location;lat;lon;timestamp;P1;durP1;ratioP1;P2;durP2;ratioP2
72813;SDS011;60945;48.516;-2.768;2023-02-26T00:02:09;10.38;;;4.07;;
72813;SDS011;60945;48.516;-2.768;2023-02-26T00:04:35;6.40;;;3.58;;
72813;SDS011;60945;48.516;-2.768;2023-02-26T00:07:02;8.32;;;3.55;;
72813;SDS011;60945;48.516;-2.768;2023-02-26T00:09:29;7.30;;;3.30;;
72813;SDS011;60945;48.516;-2.768;2023-02-26T00:11:54;5.55;;;3.05;;
72813;SDS011;60945;48.516;-2.768;2023-02-26T00:14:21;8.65;;;3.20;;
72813;SDS011;60945;48.516;-2.768;2023-02-26T00:16:49;8.35;;;3.78;;
72813;SDS011;60945;48.516;-2.768;2023-02-26T00:19:37;8.57;;;3.50;;
72813;SDS011;60945;48.516;-2.768;2023-02-26T00:22:03;9.93;;;3.67;;
72813;SDS011;60945;48.516;-2.768;2023-02-26T00:24:32;5.03;;;3.38;;
72813;SDS011;60945;48.516;-2.768;2023-02-26T00:26:57;4.53;;;3.50;;
72813;SDS011;60945;48.516;-2.768;2023-02-26T00:29:24;8.20;;;3.42;;
72813;SDS011;60945;48.516;-2.768;2023-02-26T00:31:50;7.03;;;3.55;;
72813;SDS011;60945;48.516;-2.768;2023-02-26T00:34:16;9.93;;;3.80;;
72813;SDS011;60945;48.516;-2.768;2023-02-26T00:36:49;7.18;;;3.75;;
72813;SDS011;60945;48.516;-2.768;2023-02-26T00:39:41;6.80;;;4.28;;
72813;SDS011;60945;48.516;-2.768;2023-02-26T00:42:15;6.28;;;3.40;;
72813;SDS011;60945;48.516;-2.768;2023-02-26T00:44:41;5.78;;;3.53;;
72813;SDS011;60945;48.516;-2.768;2023-02-26T00:47:09;7.55;;;3.65;;
72813;SDS011;60945;48.516;-2.768;2023-02-26T00:55:37;6.55;;;3.70;;
72813;SDS011;60945;48.516;-2.768;2023-02-26T00:58:03;3.95;;;3.55;;
72813;SDS011;60945;48.516;-2.768;2023-02-26T01:00:29;7.57;;;3.50;;
72813;SDS011;60945;48.516;-2.768;2023-02-26T01:02:55;4.75;;;3.67;;
72813;SDS011;60945;48.516;-2.768;2023-02-26T01:05:21;5.88;;;3.97;;
72813;SDS011;60945;48.516;-2.768;2023-02-26T01:07:57;8.00;;;3.92;;
72813;SDS011;60945;48.516;-2.768;2023-02-26T01:10:39;6.07;;;3.40;;
72813;SDS011;60945;48.516;-2.768;2023-02-26T01:13:05;6.55;;;3.70;;
72813;SDS011;60945;48.516;-2.768;2023-02-26T01:15:31;10.38;;;4.43;;
72813;SDS011;60945;48.516;-2.768;2023-02-26T01:20:36;7.55;;;3.50;;
72813;SDS011;60945;48.516;-2.768;2023-02-26T01:23:13;8.70;;;3.88;;
72813;SDS011;60945;48.516;-2.768;2023-02-26T01:28:39;7.00;;;3.83;;
72813;SDS011;60945;48.516;-2.768;2023-02-26T01:31:06;5.03;;;3.33;;
72813;SDS011;60945;48.516;-2.768;2023-02-26T01:33:43;7.30;;;3.80;;
72813;SDS011;60945;48.516;-2.768;2023-02-26T01:36:15;5.57;;;3.40;;
72813;SDS011;60945;48.516;-2.768;2023-02-26T01:38:52;7.95;;;3.50;;
72813;SDS011;60945;48.516;-2.768;2023-02-26T01:41:52;10.68;;;3.95;;
72813;SDS011;60945;48.516;-2.768;2023-02-26T01:44:22;5.82;;;3.50;;
72813;SDS011;60945;48.516;-2.768;2023-02-26T01:47:15;7.40;;;3.70;;
72813;SDS011;60945;48.516;-2.768;2023-02-26T01:49:52;6.35;;;3.30;;
72813;SDS011;60945;48.516;-2.768;2023-02-26T01:54:56;5.22;;;3.25;;
72813;SDS011;60945;48.516;-2.768;2023-02-26T01:57:21;7.57;;;3.95;;
72813;SDS011;60945;48.516;-2.768;2023-02-26T01:59:48;9.93;;;3.65;;
72813;SDS011;60945;48.516;-2.768;2023-02-26T02:02:17;7.05;;;3.30;;
72813;SDS011;60945;48.516;-2.768;2023-02-26T02:04:45;8.57;;;3.70;;
72813;SDS011;60945;48.516;-2.768;2023-02-26T02:07:12;6.03;;;3.50;;
72813;SDS011;60945;48.516;-2.768;2023-02-26T02:09:39;9.80;;;3.50;;
72813;SDS011;60945;48.516;-2.768;2023-02-26T02:26:10;5.75;;;3.58;;
72813;SDS011;60945;48.516;-2.768;2023-02-26T02:31:40;7.32;;;3.10;;
72813;SDS011;60945;48.516;-2.768;2023-02-26T02:34:28;7.20;;;3.70;;
72813;SDS011;60945;48.516;-2.768;2023-02-26T02:37:07;8.82;;;3.22;;
72813;SDS011;60945;48.516;-2.768;2023-02-26T02:39:55;7.97;;;3.50;;
72813;SDS011;60945;48.516;-2.768;2023-02-26T02:42:44;7.78;;;3.50;;
72813;SDS011;60945;48.516;-2.768;2023-02-26T02:45:19;11.32;;;4.15;;
72813;SDS011;60945;48.516;-2.768;2023-02-26T02:47:53;4.93;;;3.80;;
72813;SDS011;60945;48.516;-2.768;2023-02-26T02:53:00;8.23;;;3.85;;
72813;SDS011;60945;48.516;-2.768;2023-02-26T02:55:40;4.68;;;3.70;;
72813;SDS011;60945;48.516;-2.768;2023-02-26T02:58:12;8.95;;;3.88;;
72813;SDS011;60945;48.516;-2.768;2023-02-26T03:00:43;5.90;;;3.63;;
72813;SDS011;60945;48.516;-2.768;2023-02-26T03:03:19;7.93;;;3.70;;
72813;SDS011;60945;48.516;-2.768;2023-02-26T03:05:45;5.35;;;4.10;;
72813;SDS011;60945;48.516;-2.768;2023-02-26T03:08:12;4.65;;;3.80;;
72813;SDS011;60945;48.516;-2.768;2023-02-26T03:10:44;5.40;;;4.07;;
72813;SDS011;60945;48.516;-2.768;2023-02-26T03:13:14;8.18;;;4.25;;
72813;SDS011;60945;48.516;-2.768;2023-02-26T03:15:52;6.28;;;4.28;;
72813;SDS011;60945;48.516;-2.768;2023-02-26T03:24:15;7.93;;;3.85;;
72813;SDS011;60945;48.516;-2.768;2023-02-26T03:26:47;9.40;;;4.63;;
72813;SDS011;60945;48.516;-2.768;2023-02-26T03:29:54;6.43;;;4.00;;
72813;SDS011;60945;48.516;-2.768;2023-02-26T03:32:20;5.63;;;4.30;;
72813;SDS011;60945;48.516;-2.768;2023-02-26T03:35:01;8.27;;;4.05;;
72813;SDS011;60945;48.516;-2.768;2023-02-26T03:37:40;4.22;;;3.83;;
72813;SDS011;60945;48.516;-2.768;2023-02-26T03:40:29;5.30;;;4.03;;
72813;SDS011;60945;48.516;-2.768;2023-02-26T03:43:00;6.93;;;4.10;;
72813;SDS011;60945;48.516;-2.768;2023-02-26T03:45:31;5.93;;;3.95;;
72813;SDS011;60945;48.516;-2.768;2023-02-26T03:47:59;8.95;;;4.50;;
72813;SDS011;60945;48.516;-2.768;2023-02-26T03:52:56;4.38;;;3.97;;
72813;SDS011;60945;48.516;-2.768;2023-02-26T03:55:33;5.28;;;3.80;;
72813;SDS011;60945;48.516;-2.768;2023-02-26T03:58:05;6.93;;;4.05;;
72813;SDS011;60945;48.516;-2.768;2023-02-26T04:00:32;7.00;;;3.88;;
72813;SDS011;60945;48.516;-2.768;2023-02-26T04:05:32;9.73;;;4.82;;
72813;SDS011;60945;48.516;-2.768;2023-02-26T04:08:01;8.20;;;4.20;;
72813;SDS011;60945;48.516;-2.768;2023-02-26T04:11:14;4.93;;;4.22;;
72813;SDS011;60945;48.516;-2.768;2023-02-26T04:13:23;7.93;;;4.30;;
72813;SDS011;60945;48.516;-2.768;2023-02-26T04:15:50;6.63;;;4.22;;
72813;SDS011;60945;48.516;-2.768;2023-02-26T04:18:15;6.07;;;4.10;;
72813;SDS011;60945;48.516;-2.768;2023-02-26T04:20:41;8.00;;;4.15;;
72813;SDS011;60945;48.516;-2.768;2023-02-26T04:23:07;6.07;;;4.15;;
72813;SDS011;60945;48.516;-2.768;2023-02-26T04:25:32;6.03;;;5.28;;
72813;SDS011;60945;48.516;-2.768;2023-02-26T04:27:58;10.00;;;4.90;;
72813;SDS011;60945;48.516;-2.768;2023-02-26T04:30:24;7.60;;;3.92;;
72813;SDS011;60945;48.516;-2.768;2023-02-26T04:32:49;7.75;;;4.18;;
72813;SDS011;60945;48.516;-2.768;2023-02-26T04:35:15;8.82;;;3.92;;
72813;SDS011;60945;48.516;-2.768;2023-02-26T04:37:41;7.20;;;4.10;;
72813;SDS011;60945;48.516;-2.768;2023-02-26T04:40:06;9.52;;;4.00;;
72813;SDS011;60945;48.516;-2.768;2023-02-26T04:42:33;9.82;;;4.18;;
72813;SDS011;60945;48.516;-2.768;2023-02-26T04:44:58;7.28;;;4.43;;
72813;SDS011;60945;48.516;-2.768;2023-02-26T04:47:24;3.83;;;3.40;;
72813;SDS011;60945;48.516;-2.768;2023-02-26T04:49:49;7.22;;;3.90;;
72813;SDS011;60945;48.516;-2.768;2023-02-26T04:52:15;6.45;;;3.50;;
72813;SDS011;60945;48.516;-2.768;2023-02-26T04:54:41;7.05;;;3.60;;
72813;SDS011;60945;48.516;-2.768;2023-02-26T04:57:06;6.88;;;3.83;;
72813;SDS011;60945;48.516;-2.768;2023-02-26T04:59:32;6.07;;;4.25;;
72813;SDS011;60945;48.516;-2.768;2023-02-26T05:01:58;6.05;;;3.78;;
72813;SDS011;60945;48.516;-2.768;2023-02-26T05:04:23;9.20;;;4.03;;
72813;SDS011;60945;48.516;-2.768;2023-02-26T05:06:49;5.47;;;3.80;;
72813;SDS011;60945;48.516;-2.768;2023-02-26T05:09:15;6.25;;;3.95;;
72813;SDS011;60945;48.516;-2.768;2023-02-26T05:11:41;6.70;;;4.00;;
72813;SDS011;60945;48.516;-2.768;2023-02-26T05:14:06;4.88;;;3.58;;
72813;SDS011;60945;48.516;-2.768;2023-02-26T05:16:32;6.75;;;3.80;;
72813;SDS011;60945;48.516;-2.768;2023-02-26T05:18:58;8.57;;;3.83;;
72813;SDS011;60945;48.516;-2.768;2023-02-26T05:21:24;5.60;;;3.75;;
72813;SDS011;60945;48.516;-2.768;2023-02-26T05:23:50;5.93;;;3.70;;
72813;SDS011;60945;48.516;-2.768;2023-02-26T05:26:15;7.40;;;4.03;;
72813;SDS011;60945;48.516;-2.768;2023-02-26T05:28:41;6.78;;;3.88;;
72813;SDS011;60945;48.516;-2.768;2023-02-26T05:31:09;8.25;;;4.10;;
72813;SDS011;60945;48.516;-2.768;2023-02-26T05:33:36;7.85;;;4.18;;
72813;SDS011;60945;48.516;-2.768;2023-02-26T05:36:01;6.32;;;3.90;;
72813;SDS011;60945;48.516;-2.768;2023-02-26T05:38:27;7.63;;;4.00;;
72813;SDS011;60945;48.516;-2.768;2023-02-26T05:40:56;5.88;;;3.95;;
72813;SDS011;60945;48.516;-2.768;2023-02-26T05:43:23;8.00;;;3.72;;
72813;SDS011;60945;48.516;-2.768;2023-02-26T05:45:49;4.80;;;4.18;;
72813;SDS011;60945;48.516;-2.768;2023-02-26T05:48:15;6.63;;;3.90;;
72813;SDS011;60945;48.516;-2.768;2023-02-26T05:50:41;7.60;;;4.35;;
72813;SDS011;60945;48.516;-2.768;2023-02-26T05:53:07;5.20;;;3.42;;
72813;SDS011;60945;48.516;-2.768;2023-02-26T05:55:32;9.05;;;4.03;;
72813;SDS011;60945;48.516;-2.768;2023-02-26T05:57:58;9.25;;;4.22;;
72813;SDS011;60945;48.516;-2.768;2023-02-26T06:00:24;6.47;;;3.85;;
72813;SDS011;60945;48.516;-2.768;2023-02-26T06:02:49;7.35;;;3.78;;
72813;SDS011;60945;48.516;-2.768;2023-02-26T06:05:15;4.93;;;3.90;;
72813;SDS011;60945;48.516;-2.768;2023-02-26T06:07:41;5.85;;;4.03;;
72813;SDS011;60945;48.516;-2.768;2023-02-26T06:10:07;6.28;;;3.80;;
72813;SDS011;60945;48.516;-2.768;2023-02-26T06:12:33;6.60;;;3.97;;
72813;SDS011;60945;48.516;-2.768;2023-02-26T06:15:03;7.07;;;4.57;;
72813;SDS011;60945;48.516;-2.768;2023-02-26T06:17:29;4.25;;;3.80;;
72813;SDS011;60945;48.516;-2.768;2023-02-26T06:19:55;5.15;;;4.55;;
72813;SDS011;60945;48.516;-2.768;2023-02-26T06:22:20;8.38;;;4.03;;
72813;SDS011;60945;48.516;-2.768;2023-02-26T06:24:46;5.30;;;4.25;;
72813;SDS011;60945;48.516;-2.768;2023-02-26T06:27:12;5.22;;;3.90;;
72813;SDS011;60945;48.516;-2.768;2023-02-26T06:29:38;5.78;;;3.92;;
72813;SDS011;60945;48.516;-2.768;2023-02-26T06:32:04;4.95;;;4.10;;
72813;SDS011;60945;48.516;-2.768;2023-02-26T06:34:30;4.72;;;4.32;;
72813;SDS011;60945;48.516;-2.768;2023-02-26T06:36:57;4.82;;;4.30;;
72813;SDS011;60945;48.516;-2.768;2023-02-26T06:39:22;6.40;;;4.50;;
72813;SDS011;60945;48.516;-2.768;2023-02-26T06:41:48;5.15;;;4.53;;
72813;SDS011;60945;48.516;-2.768;2023-02-26T06:44:14;5.10;;;4.38;;
72813;SDS011;60945;48.516;-2.768;2023-02-26T06:46:39;6.05;;;4.57;;
72813;SDS011;60945;48.516;-2.768;2023-02-26T06:49:05;5.78;;;4.28;;
72813;SDS011;60945;48.516;-2.768;2023-02-26T06:51:31;7.05;;;4.10;;
72813;SDS011;60945;48.516;-2.768;2023-02-26T06:53:57;6.07;;;4.13;;
72813;SDS011;60945;48.516;-2.768;2023-02-26T06:56:23;6.60;;;4.18;;
72813;SDS011;60945;48.516;-2.768;2023-02-26T06:58:49;5.70;;;4.22;;
72813;SDS011;60945;48.516;-2.768;2023-02-26T07:01:15;9.60;;;4.47;;
72813;SDS011;60945;48.516;-2.768;2023-02-26T07:03:41;8.02;;;4.85;;
72813;SDS011;60945;48.516;-2.768;2023-02-26T07:06:07;6.65;;;4.65;;
72813;SDS011;60945;48.516;-2.768;2023-02-26T07:08:34;8.10;;;4.53;;
72813;SDS011;60945;48.516;-2.768;2023-02-26T07:11:00;8.68;;;4.63;;
72813;SDS011;60945;48.516;-2.768;2023-02-26T07:13:26;6.28;;;4.57;;
72813;SDS011;60945;48.516;-2.768;2023-02-26T07:15:51;8.63;;;4.53;;
72813;SDS011;60945;48.516;-2.768;2023-02-26T07:18:17;5.22;;;4.82;;
72813;SDS011;60945;48.516;-2.768;2023-02-26T07:20:43;5.15;;;4.10;;
72813;SDS011;60945;48.516;-2.768;2023-02-26T07:23:09;5.50;;;4.45;;
72813;SDS011;60945;48.516;-2.768;2023-02-26T07:25:36;6.55;;;4.30;;
72813;SDS011;60945;48.516;-2.768;2023-02-26T07:28:02;6.05;;;4.97;;
72813;SDS011;60945;48.516;-2.768;2023-02-26T07:30:28;7.80;;;4.90;;
72813;SDS011;60945;48.516;-2.768;2023-02-26T07:32:55;6.00;;;4.20;;
72813;SDS011;60945;48.516;-2.768;2023-02-26T07:35:21;5.13;;;4.55;;
72813;SDS011;60945;48.516;-2.768;2023-02-26T07:37:46;8.32;;;4.47;;
72813;SDS011;60945;48.516;-2.768;2023-02-26T07:40:12;7.60;;;4.32;;
72813;SDS011;60945;48.516;-2.768;2023-02-26T07:42:38;7.85;;;4.68;;
72813;SDS011;60945;48.516;-2.768;2023-02-26T07:45:04;10.48;;;4.30;;
72813;SDS011;60945;48.516;-2.768;2023-02-26T07:47:31;5.13;;;4.40;;
72813;SDS011;60945;48.516;-2.768;2023-02-26T07:49:57;8.13;;;4.63;;
72813;SDS011;60945;48.516;-2.768;2023-02-26T07:52:22;4.70;;;4.13;;
72813;SDS011;60945;48.516;-2.768;2023-02-26T07:54:48;5.43;;;4.20;;
72813;SDS011;60945;48.516;-2.768;2023-02-26T07:57:14;5.13;;;4.20;;
72813;SDS011;60945;48.516;-2.768;2023-02-26T07:59:40;4.20;;;3.90;;
72813;SDS011;60945;48.516;-2.768;2023-02-26T08:02:05;4.60;;;3.65;;
72813;SDS011;60945;48.516;-2.768;2023-02-26T08:04:31;3.70;;;3.40;;
72813;SDS011;60945;48.516;-2.768;2023-02-26T08:07:00;5.88;;;3.70;;
72813;SDS011;60945;48.516;-2.768;2023-02-26T08:09:26;5.97;;;3.40;;
72813;SDS011;60945;48.516;-2.768;2023-02-26T08:11:51;4.82;;;3.63;;
72813;SDS011;60945;48.516;-2.768;2023-02-26T08:14:17;4.75;;;3.70;;
72813;SDS011;60945;48.516;-2.768;2023-02-26T08:16:43;5.22;;;3.63;;
72813;SDS011;60945;48.516;-2.768;2023-02-26T08:19:09;6.85;;;3.85;;
72813;SDS011;60945;48.516;-2.768;2023-02-26T08:21:35;4.20;;;3.80;;
72813;SDS011;60945;48.516;-2.768;2023-02-26T08:24:01;5.85;;;3.78;;
72813;SDS011;60945;48.516;-2.768;2023-02-26T08:26:26;6.18;;;4.10;;
72813;SDS011;60945;48.516;-2.768;2023-02-26T08:28:52;5.57;;;4.10;;
72813;SDS011;60945;48.516;-2.768;2023-02-26T08:31:18;7.85;;;4.32;;
72813;SDS011;60945;48.516;-2.768;2023-02-26T08:33:44;7.57;;;4.32;;
72813;SDS011;60945;48.516;-2.768;2023-02-26T08:36:10;4.65;;;3.97;;
72813;SDS011;60945;48.516;-2.768;2023-02-26T08:38:36;4.47;;;4.00;;
72813;SDS011;60945;48.516;-2.768;2023-02-26T08:41:02;5.63;;;4.32;;
72813;SDS011;60945;48.516;-2.768;2023-02-26T08:43:28;4.85;;;4.10;;
72813;SDS011;60945;48.516;-2.768;2023-02-26T08:45:54;6.25;;;4.13;;
72813;SDS011;60945;48.516;-2.768;2023-02-26T08:48:21;5.47;;;3.92;;
72813;SDS011;60945;48.516;-2.768;2023-02-26T08:50:47;4.50;;;3.75;;
72813;SDS011;60945;48.516;-2.768;2023-02-26T08:53:13;6.60;;;4.38;;
72813;SDS011;60945;48.516;-2.768;2023-02-26T08:55:39;5.32;;;4.15;;
72813;SDS011;60945;48.516;-2.768;2023-02-26T08:58:04;9.90;;;4.78;;
72813;SDS011;60945;48.516;-2.768;2023-02-26T09:00:31;6.03;;;3.88;;
72813;SDS011;60945;48.516;-2.768;2023-02-26T09:02:58;5.50;;;3.78;;
72813;SDS011;60945;48.516;-2.768;2023-02-26T09:05:24;3.97;;;3.63;;
72813;SDS011;60945;48.516;-2.768;2023-02-26T09:07:49;5.78;;;3.70;;
72813;SDS011;60945;48.516;-2.768;2023-02-26T09:10:15;4.10;;;3.70;;
72813;SDS011;60945;48.516;-2.768;2023-02-26T09:12:42;4.85;;;4.32;;
72813;SDS011;60945;48.516;-2.768;2023-02-26T09:15:08;6.75;;;3.67;;
72813;SDS011;60945;48.516;-2.768;2023-02-26T09:17:35;4.93;;;3.75;;
72813;SDS011;60945;48.516;-2.768;2023-02-26T09:20:01;5.00;;;3.90;;
72813;SDS011;60945;48.516;-2.768;2023-02-26T09:22:27;5.43;;;3.97;;
72813;SDS011;60945;48.516;-2.768;2023-02-26T09:24:53;4.40;;;3.90;;
72813;SDS011;60945;48.516;-2.768;2023-02-26T09:27:19;4.25;;;3.85;;
72813;SDS011;60945;48.516;-2.768;2023-02-26T09:29:44;7.50;;;4.10;;
72813;SDS011;60945;48.516;-2.768;2023-02-26T09:32:10;8.38;;;4.03;;
72813;SDS011;60945;48.516;-2.768;2023-02-26T09:34:36;4.88;;;3.90;;
72813;SDS011;60945;48.516;-2.768;2023-02-26T09:37:03;5.80;;;4.00;;
72813;SDS011;60945;48.516;-2.768;2023-02-26T09:39:30;4.40;;;4.10;;
72813;SDS011;60945;48.516;-2.768;2023-02-26T09:41:57;5.32;;;4.60;;
72813;SDS011;60945;48.516;-2.768;2023-02-26T09:44:33;6.57;;;4.45;;
72813;SDS011;60945;48.516;-2.768;2023-02-26T09:50:05;5.75;;;4.20;;
72813;SDS011;60945;48.516;-2.768;2023-02-26T09:55:32;5.13;;;3.95;;
72813;SDS011;60945;48.516;-2.768;2023-02-26T09:58:53;4.78;;;4.25;;
72813;SDS011;60945;48.516;-2.768;2023-02-26T10:06:34;6.15;;;4.28;;
72813;SDS011;60945;48.516;-2.768;2023-02-26T10:14:51;4.65;;;3.83;;
72813;SDS011;60945;48.516;-2.768;2023-02-26T10:17:32;4.50;;;3.95;;
72813;SDS011;60945;48.516;-2.768;2023-02-26T10:23:00;6.95;;;4.18;;
72813;SDS011;60945;48.516;-2.768;2023-02-26T10:25:48;4.43;;;3.95;;
72813;SDS011;60945;48.516;-2.768;2023-02-26T10:30:59;3.92;;;3.63;;
72813;SDS011;60945;48.516;-2.768;2023-02-26T10:33:39;5.35;;;3.90;;
72813;SDS011;60945;48.516;-2.768;2023-02-26T10:38:51;4.53;;;3.75;;
72813;SDS011;60945;48.516;-2.768;2023-02-26T10:41:24;4.68;;;3.58;;
72813;SDS011;60945;48.516;-2.768;2023-02-26T10:44:00;7.40;;;4.10;;
72813;SDS011;60945;48.516;-2.768;2023-02-26T10:52:24;4.60;;;3.53;;
72813;SDS011;60945;48.516;-2.768;2023-02-26T10:55:07;5.05;;;3.42;;
72813;SDS011;60945;48.516;-2.768;2023-02-26T10:57:47;5.68;;;3.60;;
72813;SDS011;60945;48.516;-2.768;2023-02-26T11:00:24;4.80;;;3.60;;
72813;SDS011;60945;48.516;-2.768;2023-02-26T11:02:50;5.07;;;3.67;;
72813;SDS011;60945;48.516;-2.768;2023-02-26T11:05:19;4.28;;;3.45;;
72813;SDS011;60945;48.516;-2.768;2023-02-26T11:08:00;5.38;;;3.70;;
72813;SDS011;60945;48.516;-2.768;2023-02-26T11:10:46;7.65;;;3.63;;
72813;SDS011;60945;48.516;-2.768;2023-02-26T11:13:15;6.07;;;3.72;;
72813;SDS011;60945;48.516;-2.768;2023-02-26T11:15:41;6.57;;;4.40;;
72813;SDS011;60945;48.516;-2.768;2023-02-26T11:18:13;4.63;;;4.13;;
72813;SDS011;60945;48.516;-2.768;2023-02-26T11:20:42;6.07;;;5.30;;
72813;SDS011;60945;48.516;-2.768;2023-02-26T11:23:12;8.52;;;4.40;;
72813;SDS011;60945;48.516;-2.768;2023-02-26T11:25:42;5.80;;;3.65;;
72813;SDS011;60945;48.516;-2.768;2023-02-26T11:28:19;5.35;;;3.83;;
72813;SDS011;60945;48.516;-2.768;2023-02-26T11:31:05;4.90;;;3.53;;
72813;SDS011;60945;48.516;-2.768;2023-02-26T11:33:35;6.20;;;3.95;;
72813;SDS011;60945;48.516;-2.768;2023-02-26T11:36:05;5.90;;;4.00;;
72813;SDS011;60945;48.516;-2.768;2023-02-26T11:38:38;6.10;;;3.70;;
72813;SDS011;60945;48.516;-2.768;2023-02-26T11:41:05;4.63;;;3.90;;
72813;SDS011;60945;48.516;-2.768;2023-02-26T11:43:35;7.60;;;3.75;;
72813;SDS011;60945;48.516;-2.768;2023-02-26T11:46:07;6.03;;;4.10;;
72813;SDS011;60945;48.516;-2.768;2023-02-26T11:48:44;5.55;;;3.78;;
72813;SDS011;60945;48.516;-2.768;2023-02-26T11:51:12;5.60;;;3.80;;
72813;SDS011;60945;48.516;-2.768;2023-02-26T11:53:48;5.45;;;3.35;;
72813;SDS011;60945;48.516;-2.768;2023-02-26T11:56:34;4.60;;;3.95;;
72813;SDS011;60945;48.516;-2.768;2023-02-26T11:59:18;5.20;;;3.60;;
72813;SDS011;60945;48.516;-2.768;2023-02-26T12:01:45;6.22;;;3.95;;
72813;SDS011;60945;48.516;-2.768;2023-02-26T12:04:12;4.25;;;3.55;;
72813;SDS011;60945;48.516;-2.768;2023-02-26T12:06:40;4.00;;;3.60;;
72813;SDS011;60945;48.516;-2.768;2023-02-26T12:09:10;6.88;;;4.07;;
72813;SDS011;60945;48.516;-2.768;2023-02-26T12:14:50;4.53;;;3.20;;
72813;SDS011;60945;48.516;-2.768;2023-02-26T12:20:11;5.78;;;3.97;;
72813;SDS011;60945;48.516;-2.768;2023-02-26T12:26:04;4.07;;;3.60;;
72813;SDS011;60945;48.516;-2.768;2023-02-26T12:31:14;5.75;;;3.90;;
72813;SDS011;60945;48.516;-2.768;2023-02-26T12:34:09;6.28;;;4.00;;
72813;SDS011;60945;48.516;-2.768;2023-02-26T12:51:01;6.15;;;5.13;;
72813;SDS011;60945;48.516;-2.768;2023-02-26T12:54:37;6.53;;;5.03;;
72813;SDS011;60945;48.516;-2.768;2023-02-26T13:05:29;7.55;;;4.72;;
72813;SDS011;60945;48.516;-2.768;2023-02-26T13:21:14;4.93;;;4.43;;
72813;SDS011;60945;48.516;-2.768;2023-02-26T13:23:50;5.25;;;4.75;;
72813;SDS011;60945;48.516;-2.768;2023-02-26T13:26:42;6.78;;;4.45;;
72813;SDS011;60945;48.516;-2.768;2023-02-26T13:29:18;5.38;;;4.88;;
72813;SDS011;60945;48.516;-2.768;2023-02-26T13:31:58;4.90;;;4.43;;
72813;SDS011;60945;48.516;-2.768;2023-02-26T13:34:47;7.15;;;4.57;;
72813;SDS011;60945;48.516;-2.768;2023-02-26T13:48:40;5.20;;;4.70;;
72813;SDS011;60945;48.516;-2.768;2023-02-26T13:51:37;5.65;;;4.70;;
72813;SDS011;60945;48.516;-2.768;2023-02-26T13:54:07;5.10;;;4.63;;
72813;SDS011;60945;48.516;-2.768;2023-02-26T13:56:58;4.85;;;4.45;;
72813;SDS011;60945;48.516;-2.768;2023-02-26T13:59:35;5.47;;;4.90;;
72813;SDS011;60945;48.516;-2.768;2023-02-26T14:02:15;5.63;;;5.10;;
72813;SDS011;60945;48.516;-2.768;2023-02-26T14:05:07;5.13;;;4.70;;
72813;SDS011;60945;48.516;-2.768;2023-02-26T14:07:53;5.40;;;4.90;;
72813;SDS011;60945;48.516;-2.768;2023-02-26T14:10:53;7.57;;;5.53;;
72813;SDS011;60945;48.516;-2.768;2023-02-26T14:16:11;7.10;;;5.10;;
72813;SDS011;60945;48.516;-2.768;2023-02-26T14:26:34;6.70;;;5.20;;
72813;SDS011;60945;48.516;-2.768;2023-02-26T14:31:46;6.25;;;5.65;;
72813;SDS011;60945;48.516;-2.768;2023-02-26T14:34:24;5.82;;;5.32;;
72813;SDS011;60945;48.516;-2.768;2023-02-26T14:37:02;6.28;;;5.68;;
72813;SDS011;60945;48.516;-2.768;2023-02-26T14:39:38;6.10;;;5.45;;
72813;SDS011;60945;48.516;-2.768;2023-02-26T14:42:11;5.97;;;5.32;;
72813;SDS011;60945;48.516;-2.768;2023-02-26T14:44:46;8.80;;;5.85;;
72813;SDS011;60945;48.516;-2.768;2023-02-26T14:47:18;6.75;;;5.57;;
72813;SDS011;60945;48.516;-2.768;2023-02-26T14:49:45;5.88;;;5.32;;
72813;SDS011;60945;48.516;-2.768;2023-02-26T15:00:58;8.38;;;5.40;;
72813;SDS011;60945;48.516;-2.768;2023-02-26T15:12:36;6.13;;;5.63;;
72813;SDS011;60945;48.516;-2.768;2023-02-26T15:15:55;5.57;;;5.07;;
72813;SDS011;60945;48.516;-2.768;2023-02-26T15:21:28;6.15;;;4.90;;
72813;SDS011;60945;48.516;-2.768;2023-02-26T15:24:19;5.93;;;5.03;;
72813;SDS011;60945;48.516;-2.768;2023-02-26T15:26:47;7.90;;;5.43;;
72813;SDS011;60945;48.516;-2.768;2023-02-26T15:29:15;6.55;;;5.53;;
72813;SDS011;60945;48.516;-2.768;2023-02-26T15:31:43;6.57;;;4.75;;
72813;SDS011;60945;48.516;-2.768;2023-02-26T15:34:14;7.22;;;4.75;;
72813;SDS011;60945;48.516;-2.768;2023-02-26T15:36:44;5.68;;;4.30;;
72813;SDS011;60945;48.516;-2.768;2023-02-26T15:39:15;7.50;;;4.80;;
72813;SDS011;60945;48.516;-2.768;2023-02-26T15:41:42;5.97;;;4.57;;
72813;SDS011;60945;48.516;-2.768;2023-02-26T15:44:15;5.63;;;4.60;;
72813;SDS011;60945;48.516;-2.768;2023-02-26T15:46:45;6.75;;;4.13;;
72813;SDS011;60945;48.516;-2.768;2023-02-26T15:49:17;6.95;;;4.35;;
72813;SDS011;60945;48.516;-2.768;2023-02-26T15:52:03;8.18;;;4.43;;
72813;SDS011;60945;48.516;-2.768;2023-02-26T15:54:44;5.30;;;4.30;;
72813;SDS011;60945;48.516;-2.768;2023-02-26T15:59:43;5.07;;;4.40;;
72813;SDS011;60945;48.516;-2.768;2023-02-26T16:02:12;7.65;;;4.53;;
72813;SDS011;60945;48.516;-2.768;2023-02-26T16:04:40;4.85;;;4.30;;
72813;SDS011;60945;48.516;-2.768;2023-02-26T16:07:08;6.25;;;5.00;;
72813;SDS011;60945;48.516;-2.768;2023-02-26T16:09:39;5.70;;;5.03;;
72813;SDS011;60945;48.516;-2.768;2023-02-26T16:14:38;5.22;;;4.57;;
72813;SDS011;60945;48.516;-2.768;2023-02-26T16:17:10;5.88;;;4.13;;
72813;SDS011;60945;48.516;-2.768;2023-02-26T16:19:40;5.80;;;4.38;;
72813;SDS011;60945;48.516;-2.768;2023-02-26T16:22:15;5.53;;;4.90;;
72813;SDS011;60945;48.516;-2.768;2023-02-26T16:24:50;7.90;;;4.35;;
72813;SDS011;60945;48.516;-2.768;2023-02-26T16:27:19;5.60;;;4.25;;
72813;SDS011;60945;48.516;-2.768;2023-02-26T16:29:49;6.45;;;4.53;;
72813;SDS011;60945;48.516;-2.768;2023-02-26T16:32:17;6.35;;;4.03;;
72813;SDS011;60945;48.516;-2.768;2023-02-26T16:34:53;7.90;;;4.03;;
72813;SDS011;60945;48.516;-2.768;2023-02-26T16:37:23;5.30;;;4.70;;
72813;SDS011;60945;48.516;-2.768;2023-02-26T16:45:21;6.38;;;4.40;;
72813;SDS011;60945;48.516;-2.768;2023-02-26T16:48:21;6.03;;;4.50;;
72813;SDS011;60945;48.516;-2.768;2023-02-26T16:51:11;6.80;;;4.53;;
72813;SDS011;60945;48.516;-2.768;2023-02-26T16:53:44;7.88;;;4.35;;
72813;SDS011;60945;48.516;-2.768;2023-02-26T16:56:23;8.43;;;4.78;;
72813;SDS011;60945;48.516;-2.768;2023-02-26T16:59:37;8.40;;;4.78;;
72813;SDS011;60945;48.516;-2.768;2023-02-26T17:01:39;8.07;;;4.43;;
72813;SDS011;60945;48.516;-2.768;2023-02-26T17:04:14;6.80;;;4.20;;
72813;SDS011;60945;48.516;-2.768;2023-02-26T17:06:46;4.93;;;4.38;;
72813;SDS011;60945;48.516;-2.768;2023-02-26T17:12:04;7.80;;;4.68;;
72813;SDS011;60945;48.516;-2.768;2023-02-26T17:14:56;9.88;;;5.15;;
72813;SDS011;60945;48.516;-2.768;2023-02-26T17:17:24;6.38;;;4.82;;
72813;SDS011;60945;48.516;-2.768;2023-02-26T17:19:50;11.45;;;4.30;;
72813;SDS011;60945;48.516;-2.768;2023-02-26T17:22:18;5.70;;;4.10;;
72813;SDS011;60945;48.516;-2.768;2023-02-26T17:24:49;4.80;;;4.25;;
72813;SDS011;60945;48.516;-2.768;2023-02-26T17:27:18;6.25;;;4.43;;
72813;SDS011;60945;48.516;-2.768;2023-02-26T17:29:55;7.07;;;4.30;;
72813;SDS011;60945;48.516;-2.768;2023-02-26T17:32:23;7.10;;;4.00;;
72813;SDS011;60945;48.516;-2.768;2023-02-26T17:34:51;7.53;;;4.40;;
72813;SDS011;60945;48.516;-2.768;2023-02-26T17:37:17;7.88;;;4.53;;
72813;SDS011;60945;48.516;-2.768;2023-02-26T17:39:44;8.95;;;4.32;;
72813;SDS011;60945;48.516;-2.768;2023-02-26T17:42:16;8.93;;;4.20;;
72813;SDS011;60945;48.516;-2.768;2023-02-26T17:44:45;10.50;;;4.47;;
72813;SDS011;60945;48.516;-2.768;2023-02-26T17:47:19;5.20;;;4.40;;
72813;SDS011;60945;48.516;-2.768;2023-02-26T17:49:46;5.07;;;3.90;;
72813;SDS011;60945;48.516;-2.768;2023-02-26T17:52:12;5.57;;;4.30;;
72813;SDS011;60945;48.516;-2.768;2023-02-26T17:54:38;7.80;;;4.57;;
72813;SDS011;60945;48.516;-2.768;2023-02-26T17:57:04;8.70;;;5.05;;
72813;SDS011;60945;48.516;-2.768;2023-02-26T17:59:30;6.38;;;5.32;;